sensor_id;sensor_type;location;lat;lon;timestamp;P1;durP1;ratioP1;P2;durP2;ratioP2
72517;SDS011;60540;51.178;6.738;2022-09-14T00:01:56;3.80;;;1.65;;
72517;SDS011;60540;51.178;6.738;2022-09-14T00:04:22;4.03;;;1.60;;
72517;SDS011;60540;51.178;6.738;2022-09-14T00:06:47;4.40;;;1.83;;
72517;SDS011;60540;51.178;6.738;2022-09-14T00:09:15;3.58;;;1.83;;
72517;SDS011;60540;51.178;6.738;2022-09-14T00:11:42;4.80;;;1.60;;
72517;SDS011;60540;51.178;6.738;2022-09-14T00:14:07;4.35;;;1.92;;
72517;SDS011;60540;51.178;6.738;2022-09-14T00:16:34;3.67;;;1.80;;
72517;SDS011;60540;51.178;6.738;2022-09-14T00:19:03;3.60;;;1.70;;
72517;SDS011;60540;51.178;6.738;2022-09-14T00:21:37;4.57;;;1.73;;
72517;SDS011;60540;51.178;6.738;2022-09-14T00:24:03;5.82;;;1.50;;
72517;SDS011;60540;51.178;6.738;2022-09-14T00:26:31;7.22;;;1.55;;
72517;SDS011;60540;51.178;6.738;2022-09-14T00:28:57;4.82;;;1.55;;
72517;SDS011;60540;51.178;6.738;2022-09-14T00:31:28;5.05;;;2.00;;
72517;SDS011;60540;51.178;6.738;2022-09-14T00:33:54;4.97;;;1.45;;
72517;SDS011;60540;51.178;6.738;2022-09-14T00:36:21;3.88;;;1.60;;
72517;SDS011;60540;51.178;6.738;2022-09-14T00:38:48;3.58;;;1.70;;
72517;SDS011;60540;51.178;6.738;2022-09-14T00:41:15;4.13;;;1.67;;
72517;SDS011;60540;51.178;6.738;2022-09-14T00:43:53;3.05;;;1.55;;
72517;SDS011;60540;51.178;6.738;2022-09-14T00:46:21;6.28;;;1.90;;
72517;SDS011;60540;51.178;6.738;2022-09-14T00:51:14;3.47;;;1.50;;
72517;SDS011;60540;51.178;6.738;2022-09-14T00:53:40;4.47;;;1.63;;
72517;SDS011;60540;51.178;6.738;2022-09-14T00:56:06;3.22;;;1.52;;
72517;SDS011;60540;51.178;6.738;2022-09-14T00:58:31;4.68;;;1.42;;
72517;SDS011;60540;51.178;6.738;2022-09-14T01:00:57;4.53;;;1.80;;
72517;SDS011;60540;51.178;6.738;2022-09-14T01:03:23;3.88;;;1.65;;
72517;SDS011;60540;51.178;6.738;2022-09-14T01:13:30;3.75;;;1.60;;
72517;SDS011;60540;51.178;6.738;2022-09-14T01:18:52;3.78;;;1.60;;
72517;SDS011;60540;51.178;6.738;2022-09-14T01:29:25;5.97;;;1.60;;
72517;SDS011;60540;51.178;6.738;2022-09-14T01:32:17;4.15;;;1.70;;
72517;SDS011;60540;51.178;6.738;2022-09-14T01:34:45;4.72;;;2.08;;
72517;SDS011;60540;51.178;6.738;2022-09-14T01:37:18;3.17;;;1.50;;
72517;SDS011;60540;51.178;6.738;2022-09-14T01:39:49;3.45;;;1.80;;
72517;SDS011;60540;51.178;6.738;2022-09-14T01:44:46;3.60;;;1.70;;
72517;SDS011;60540;51.178;6.738;2022-09-14T01:47:16;3.40;;;1.60;;
72517;SDS011;60540;51.178;6.738;2022-09-14T01:49:47;4.05;;;1.50;;
72517;SDS011;60540;51.178;6.738;2022-09-14T01:52:18;4.07;;;1.60;;
72517;SDS011;60540;51.178;6.738;2022-09-14T01:54:53;4.30;;;1.63;;
72517;SDS011;60540;51.178;6.738;2022-09-14T01:58:11;5.28;;;1.65;;
72517;SDS011;60540;51.178;6.738;2022-09-14T02:02:53;5.45;;;1.90;;
72517;SDS011;60540;51.178;6.738;2022-09-14T02:05:29;4.63;;;1.88;;
72517;SDS011;60540;51.178;6.738;2022-09-14T02:07:59;4.15;;;1.60;;
72517;SDS011;60540;51.178;6.738;2022-09-14T02:10:24;4.72;;;1.63;;
72517;SDS011;60540;51.178;6.738;2022-09-14T02:12:51;3.58;;;1.63;;
72517;SDS011;60540;51.178;6.738;2022-09-14T02:15:18;3.65;;;1.67;;
72517;SDS011;60540;51.178;6.738;2022-09-14T02:17:44;4.65;;;1.73;;
72517;SDS011;60540;51.178;6.738;2022-09-14T02:20:12;6.22;;;2.03;;
72517;SDS011;60540;51.178;6.738;2022-09-14T02:22:45;3.92;;;1.65;;
72517;SDS011;60540;51.178;6.738;2022-09-14T02:25:10;4.13;;;1.58;;
72517;SDS011;60540;51.178;6.738;2022-09-14T02:27:36;3.92;;;1.70;;
72517;SDS011;60540;51.178;6.738;2022-09-14T02:30:02;7.68;;;1.83;;
72517;SDS011;60540;51.178;6.738;2022-09-14T02:32:50;3.30;;;1.60;;
72517;SDS011;60540;51.178;6.738;2022-09-14T02:37:53;6.57;;;1.73;;
72517;SDS011;60540;51.178;6.738;2022-09-14T02:40:36;4.93;;;1.88;;
72517;SDS011;60540;51.178;6.738;2022-09-14T02:43:09;5.88;;;1.85;;
72517;SDS011;60540;51.178;6.738;2022-09-14T02:46:04;5.00;;;1.77;;
72517;SDS011;60540;51.178;6.738;2022-09-14T02:48:48;4.85;;;2.22;;
72517;SDS011;60540;51.178;6.738;2022-09-14T02:51:24;4.28;;;1.98;;
72517;SDS011;60540;51.178;6.738;2022-09-14T02:53:56;4.60;;;1.88;;
72517;SDS011;60540;51.178;6.738;2022-09-14T02:56:25;6.68;;;3.00;;
72517;SDS011;60540;51.178;6.738;2022-09-14T02:58:52;4.88;;;1.90;;
72517;SDS011;60540;51.178;6.738;2022-09-14T03:01:18;3.60;;;1.73;;
72517;SDS011;60540;51.178;6.738;2022-09-14T03:03:45;5.68;;;2.22;;
72517;SDS011;60540;51.178;6.738;2022-09-14T03:06:10;3.15;;;1.80;;
72517;SDS011;60540;51.178;6.738;2022-09-14T03:08:36;5.47;;;2.10;;
72517;SDS011;60540;51.178;6.738;2022-09-14T03:11:01;4.93;;;2.28;;
72517;SDS011;60540;51.178;6.738;2022-09-14T03:13:27;4.22;;;2.30;;
72517;SDS011;60540;51.178;6.738;2022-09-14T03:15:53;3.85;;;2.00;;
72517;SDS011;60540;51.178;6.738;2022-09-14T03:18:19;4.10;;;2.10;;
72517;SDS011;60540;51.178;6.738;2022-09-14T03:20:44;5.20;;;2.60;;
72517;SDS011;60540;51.178;6.738;2022-09-14T03:23:10;4.35;;;2.25;;
72517;SDS011;60540;51.178;6.738;2022-09-14T03:28:03;7.05;;;2.92;;
72517;SDS011;60540;51.178;6.738;2022-09-14T03:30:29;6.50;;;2.38;;
72517;SDS011;60540;51.178;6.738;2022-09-14T03:32:54;5.68;;;2.58;;
72517;SDS011;60540;51.178;6.738;2022-09-14T03:35:20;5.43;;;2.53;;
72517;SDS011;60540;51.178;6.738;2022-09-14T03:37:45;5.70;;;2.60;;
72517;SDS011;60540;51.178;6.738;2022-09-14T03:40:12;6.15;;;2.33;;
72517;SDS011;60540;51.178;6.738;2022-09-14T03:42:42;6.43;;;2.70;;
72517;SDS011;60540;51.178;6.738;2022-09-14T03:45:09;4.97;;;2.80;;
72517;SDS011;60540;51.178;6.738;2022-09-14T03:47:39;5.45;;;2.55;;
72517;SDS011;60540;51.178;6.738;2022-09-14T03:50:05;4.90;;;3.05;;
72517;SDS011;60540;51.178;6.738;2022-09-14T03:52:32;6.13;;;2.80;;
72517;SDS011;60540;51.178;6.738;2022-09-14T03:57:24;4.65;;;2.90;;
72517;SDS011;60540;51.178;6.738;2022-09-14T03:59:49;5.47;;;2.75;;
72517;SDS011;60540;51.178;6.738;2022-09-14T04:02:15;5.80;;;2.95;;
72517;SDS011;60540;51.178;6.738;2022-09-14T04:04:40;7.50;;;2.92;;
72517;SDS011;60540;51.178;6.738;2022-09-14T04:07:06;5.95;;;2.70;;
72517;SDS011;60540;51.178;6.738;2022-09-14T04:09:31;6.75;;;3.25;;
72517;SDS011;60540;51.178;6.738;2022-09-14T04:11:58;7.20;;;3.38;;
72517;SDS011;60540;51.178;6.738;2022-09-14T04:14:23;6.10;;;3.33;;
72517;SDS011;60540;51.178;6.738;2022-09-14T04:16:49;6.63;;;3.05;;
72517;SDS011;60540;51.178;6.738;2022-09-14T04:19:15;8.07;;;3.13;;
72517;SDS011;60540;51.178;6.738;2022-09-14T04:21:40;5.55;;;3.25;;
72517;SDS011;60540;51.178;6.738;2022-09-14T04:24:07;7.20;;;3.83;;
72517;SDS011;60540;51.178;6.738;2022-09-14T04:26:34;5.88;;;3.60;;
72517;SDS011;60540;51.178;6.738;2022-09-14T04:29:00;6.95;;;3.25;;
72517;SDS011;60540;51.178;6.738;2022-09-14T04:31:26;6.95;;;3.13;;
72517;SDS011;60540;51.178;6.738;2022-09-14T04:33:53;6.18;;;3.53;;
72517;SDS011;60540;51.178;6.738;2022-09-14T04:36:21;7.32;;;3.55;;
72517;SDS011;60540;51.178;6.738;2022-09-14T04:38:51;5.68;;;3.60;;
72517;SDS011;60540;51.178;6.738;2022-09-14T04:41:18;6.40;;;3.53;;
72517;SDS011;60540;51.178;6.738;2022-09-14T04:43:44;6.72;;;3.20;;
72517;SDS011;60540;51.178;6.738;2022-09-14T04:46:16;7.55;;;3.78;;
72517;SDS011;60540;51.178;6.738;2022-09-14T04:48:42;8.43;;;3.42;;
72517;SDS011;60540;51.178;6.738;2022-09-14T04:51:12;5.15;;;3.20;;
72517;SDS011;60540;51.178;6.738;2022-09-14T04:53:40;8.05;;;3.10;;
72517;SDS011;60540;51.178;6.738;2022-09-14T04:56:07;8.73;;;3.80;;
72517;SDS011;60540;51.178;6.738;2022-09-14T04:58:34;6.05;;;3.50;;
72517;SDS011;60540;51.178;6.738;2022-09-14T05:01:03;4.95;;;2.92;;
72517;SDS011;60540;51.178;6.738;2022-09-14T05:03:30;7.00;;;3.75;;
72517;SDS011;60540;51.178;6.738;2022-09-14T05:05:59;5.88;;;2.85;;
72517;SDS011;60540;51.178;6.738;2022-09-14T05:08:26;6.85;;;2.90;;
72517;SDS011;60540;51.178;6.738;2022-09-14T05:10:53;7.72;;;2.70;;
72517;SDS011;60540;51.178;6.738;2022-09-14T05:13:20;9.35;;;2.97;;
72517;SDS011;60540;51.178;6.738;2022-09-14T05:15:45;5.63;;;2.88;;
72517;SDS011;60540;51.178;6.738;2022-09-14T05:18:11;5.95;;;2.78;;
72517;SDS011;60540;51.178;6.738;2022-09-14T05:20:36;7.60;;;3.08;;
72517;SDS011;60540;51.178;6.738;2022-09-14T05:23:02;7.05;;;3.45;;
72517;SDS011;60540;51.178;6.738;2022-09-14T05:25:28;5.80;;;2.80;;
72517;SDS011;60540;51.178;6.738;2022-09-14T05:27:53;8.82;;;2.63;;
72517;SDS011;60540;51.178;6.738;2022-09-14T05:30:19;4.47;;;2.03;;
72517;SDS011;60540;51.178;6.738;2022-09-14T05:32:45;5.65;;;2.40;;
72517;SDS011;60540;51.178;6.738;2022-09-14T05:35:10;5.30;;;2.50;;
72517;SDS011;60540;51.178;6.738;2022-09-14T05:37:36;6.88;;;2.60;;
72517;SDS011;60540;51.178;6.738;2022-09-14T05:40:02;6.53;;;2.50;;
72517;SDS011;60540;51.178;6.738;2022-09-14T05:42:29;5.25;;;2.15;;
72517;SDS011;60540;51.178;6.738;2022-09-14T05:44:55;5.85;;;2.30;;
72517;SDS011;60540;51.178;6.738;2022-09-14T05:47:20;4.90;;;2.10;;
72517;SDS011;60540;51.178;6.738;2022-09-14T05:49:46;7.07;;;2.38;;
72517;SDS011;60540;51.178;6.738;2022-09-14T05:52:12;5.50;;;2.70;;
72517;SDS011;60540;51.178;6.738;2022-09-14T05:54:37;5.55;;;2.08;;
72517;SDS011;60540;51.178;6.738;2022-09-14T05:57:03;4.88;;;2.45;;
72517;SDS011;60540;51.178;6.738;2022-09-14T05:59:28;4.78;;;2.42;;
72517;SDS011;60540;51.178;6.738;2022-09-14T06:01:58;4.07;;;2.15;;
72517;SDS011;60540;51.178;6.738;2022-09-14T06:04:24;4.82;;;2.50;;
72517;SDS011;60540;51.178;6.738;2022-09-14T06:06:49;7.50;;;2.25;;
72517;SDS011;60540;51.178;6.738;2022-09-14T06:09:15;5.18;;;2.08;;
72517;SDS011;60540;51.178;6.738;2022-09-14T06:11:40;4.72;;;2.30;;
72517;SDS011;60540;51.178;6.738;2022-09-14T06:14:06;5.97;;;2.25;;
72517;SDS011;60540;51.178;6.738;2022-09-14T06:16:32;6.28;;;2.20;;
72517;SDS011;60540;51.178;6.738;2022-09-14T06:18:58;7.18;;;2.30;;
72517;SDS011;60540;51.178;6.738;2022-09-14T06:21:29;4.10;;;2.15;;
72517;SDS011;60540;51.178;6.738;2022-09-14T06:23:55;6.35;;;1.88;;
72517;SDS011;60540;51.178;6.738;2022-09-14T06:26:20;8.40;;;2.50;;
72517;SDS011;60540;51.178;6.738;2022-09-14T06:28:46;8.85;;;2.60;;
72517;SDS011;60540;51.178;6.738;2022-09-14T06:31:13;5.55;;;2.25;;
72517;SDS011;60540;51.178;6.738;2022-09-14T06:33:42;4.90;;;1.90;;
72517;SDS011;60540;51.178;6.738;2022-09-14T06:36:10;7.82;;;2.20;;
72517;SDS011;60540;51.178;6.738;2022-09-14T06:38:38;4.97;;;1.77;;
72517;SDS011;60540;51.178;6.738;2022-09-14T06:41:05;5.18;;;1.98;;
72517;SDS011;60540;51.178;6.738;2022-09-14T06:43:34;6.47;;;1.90;;
72517;SDS011;60540;51.178;6.738;2022-09-14T06:46:09;6.28;;;1.67;;
72517;SDS011;60540;51.178;6.738;2022-09-14T06:48:43;5.80;;;2.20;;
72517;SDS011;60540;51.178;6.738;2022-09-14T06:51:12;9.35;;;2.53;;
72517;SDS011;60540;51.178;6.738;2022-09-14T06:53:42;6.38;;;1.88;;
72517;SDS011;60540;51.178;6.738;2022-09-14T06:56:08;4.50;;;1.83;;
72517;SDS011;60540;51.178;6.738;2022-09-14T06:58:34;5.20;;;2.30;;
72517;SDS011;60540;51.178;6.738;2022-09-14T07:01:00;6.55;;;2.22;;
72517;SDS011;60540;51.178;6.738;2022-09-14T07:03:29;7.18;;;2.17;;
72517;SDS011;60540;51.178;6.738;2022-09-14T07:06:00;5.82;;;1.63;;
72517;SDS011;60540;51.178;6.738;2022-09-14T07:08:31;4.43;;;1.80;;
72517;SDS011;60540;51.178;6.738;2022-09-14T07:10:58;5.95;;;1.88;;
72517;SDS011;60540;51.178;6.738;2022-09-14T07:13:23;4.25;;;1.50;;
72517;SDS011;60540;51.178;6.738;2022-09-14T07:15:49;5.15;;;2.00;;
72517;SDS011;60540;51.178;6.738;2022-09-14T07:18:15;4.13;;;2.00;;
72517;SDS011;60540;51.178;6.738;2022-09-14T07:20:41;5.80;;;1.83;;
72517;SDS011;60540;51.178;6.738;2022-09-14T07:23:07;6.53;;;2.25;;
72517;SDS011;60540;51.178;6.738;2022-09-14T07:25:32;4.97;;;1.70;;
72517;SDS011;60540;51.178;6.738;2022-09-14T07:27:58;4.70;;;1.90;;
72517;SDS011;60540;51.178;6.738;2022-09-14T07:30:25;4.70;;;2.47;;
72517;SDS011;60540;51.178;6.738;2022-09-14T07:32:52;5.55;;;2.13;;
72517;SDS011;60540;51.178;6.738;2022-09-14T07:35:18;7.25;;;2.08;;
72517;SDS011;60540;51.178;6.738;2022-09-14T07:37:44;5.93;;;1.75;;
72517;SDS011;60540;51.178;6.738;2022-09-14T07:40:09;6.85;;;1.60;;
72517;SDS011;60540;51.178;6.738;2022-09-14T07:42:36;5.60;;;1.80;;
72517;SDS011;60540;51.178;6.738;2022-09-14T07:45:03;5.03;;;1.85;;
72517;SDS011;60540;51.178;6.738;2022-09-14T07:47:29;2.80;;;1.60;;
72517;SDS011;60540;51.178;6.738;2022-09-14T07:49:55;4.90;;;2.03;;
72517;SDS011;60540;51.178;6.738;2022-09-14T07:52:20;5.43;;;2.13;;
72517;SDS011;60540;51.178;6.738;2022-09-14T07:54:46;4.82;;;1.65;;
72517;SDS011;60540;51.178;6.738;2022-09-14T07:57:11;5.53;;;2.35;;
72517;SDS011;60540;51.178;6.738;2022-09-14T07:59:37;4.90;;;2.05;;
72517;SDS011;60540;51.178;6.738;2022-09-14T08:02:07;5.65;;;1.63;;
72517;SDS011;60540;51.178;6.738;2022-09-14T08:04:33;7.30;;;2.20;;
72517;SDS011;60540;51.178;6.738;2022-09-14T08:07:00;5.43;;;1.88;;
72517;SDS011;60540;51.178;6.738;2022-09-14T08:09:26;3.78;;;1.88;;
72517;SDS011;60540;51.178;6.738;2022-09-14T08:11:52;6.00;;;2.53;;
72517;SDS011;60540;51.178;6.738;2022-09-14T08:14:17;5.30;;;2.40;;
72517;SDS011;60540;51.178;6.738;2022-09-14T08:16:43;5.55;;;2.83;;
72517;SDS011;60540;51.178;6.738;2022-09-14T08:19:13;4.85;;;2.40;;
72517;SDS011;60540;51.178;6.738;2022-09-14T08:21:41;4.32;;;2.40;;
72517;SDS011;60540;51.178;6.738;2022-09-14T08:24:07;4.22;;;2.50;;
72517;SDS011;60540;51.178;6.738;2022-09-14T08:26:36;4.50;;;3.20;;
72517;SDS011;60540;51.178;6.738;2022-09-14T08:29:02;4.60;;;2.70;;
72517;SDS011;60540;51.178;6.738;2022-09-14T08:31:29;5.93;;;2.67;;
72517;SDS011;60540;51.178;6.738;2022-09-14T08:33:59;4.30;;;2.25;;
72517;SDS011;60540;51.178;6.738;2022-09-14T08:36:28;3.90;;;2.25;;
72517;SDS011;60540;51.178;6.738;2022-09-14T08:38:55;4.07;;;2.00;;
72517;SDS011;60540;51.178;6.738;2022-09-14T08:49:21;6.05;;;2.30;;
72517;SDS011;60540;51.178;6.738;2022-09-14T08:51:54;5.68;;;2.30;;
72517;SDS011;60540;51.178;6.738;2022-09-14T08:54:20;4.35;;;2.45;;
72517;SDS011;60540;51.178;6.738;2022-09-14T08:56:47;5.00;;;2.47;;
72517;SDS011;60540;51.178;6.738;2022-09-14T08:59:35;3.97;;;2.00;;
72517;SDS011;60540;51.178;6.738;2022-09-14T09:05:22;4.07;;;2.10;;
72517;SDS011;60540;51.178;6.738;2022-09-14T09:07:56;3.88;;;2.00;;
72517;SDS011;60540;51.178;6.738;2022-09-14T09:10:31;5.72;;;2.20;;
72517;SDS011;60540;51.178;6.738;2022-09-14T09:12:58;3.78;;;2.10;;
72517;SDS011;60540;51.178;6.738;2022-09-14T09:15:31;3.40;;;2.28;;
72517;SDS011;60540;51.178;6.738;2022-09-14T09:18:09;4.72;;;2.42;;
72517;SDS011;60540;51.178;6.738;2022-09-14T09:20:39;3.97;;;2.08;;
72517;SDS011;60540;51.178;6.738;2022-09-14T09:23:13;4.60;;;2.20;;
72517;SDS011;60540;51.178;6.738;2022-09-14T09:25:44;5.32;;;2.05;;
72517;SDS011;60540;51.178;6.738;2022-09-14T09:28:11;4.05;;;2.10;;
72517;SDS011;60540;51.178;6.738;2022-09-14T09:30:37;5.90;;;2.50;;
72517;SDS011;60540;51.178;6.738;2022-09-14T09:33:04;3.40;;;2.00;;
72517;SDS011;60540;51.178;6.738;2022-09-14T09:35:30;3.92;;;2.03;;
72517;SDS011;60540;51.178;6.738;2022-09-14T09:37:56;5.07;;;2.20;;
72517;SDS011;60540;51.178;6.738;2022-09-14T09:40:29;5.28;;;2.40;;
72517;SDS011;60540;51.178;6.738;2022-09-14T09:43:05;6.07;;;3.15;;
72517;SDS011;60540;51.178;6.738;2022-09-14T09:48:27;4.90;;;2.70;;
72517;SDS011;60540;51.178;6.738;2022-09-14T09:50:58;5.45;;;2.75;;
72517;SDS011;60540;51.178;6.738;2022-09-14T09:53:38;5.95;;;2.83;;
72517;SDS011;60540;51.178;6.738;2022-09-14T09:56:30;5.80;;;3.20;;
72517;SDS011;60540;51.178;6.738;2022-09-14T09:58:57;7.13;;;3.53;;
72517;SDS011;60540;51.178;6.738;2022-09-14T10:01:28;8.13;;;3.63;;
72517;SDS011;60540;51.178;6.738;2022-09-14T10:06:39;5.40;;;3.00;;
72517;SDS011;60540;51.178;6.738;2022-09-14T10:09:19;5.65;;;3.47;;
72517;SDS011;60540;51.178;6.738;2022-09-14T10:11:47;4.82;;;3.20;;
72517;SDS011;60540;51.178;6.738;2022-09-14T10:14:31;4.43;;;2.78;;
72517;SDS011;60540;51.178;6.738;2022-09-14T10:17:17;4.65;;;3.05;;
72517;SDS011;60540;51.178;6.738;2022-09-14T10:19:48;6.03;;;3.67;;
72517;SDS011;60540;51.178;6.738;2022-09-14T10:22:17;5.13;;;3.10;;
72517;SDS011;60540;51.178;6.738;2022-09-14T10:25:07;5.78;;;3.72;;
72517;SDS011;60540;51.178;6.738;2022-09-14T10:27:39;5.85;;;3.15;;
72517;SDS011;60540;51.178;6.738;2022-09-14T10:30:08;4.82;;;3.30;;
72517;SDS011;60540;51.178;6.738;2022-09-14T10:32:37;6.05;;;3.17;;
72517;SDS011;60540;51.178;6.738;2022-09-14T10:35:07;6.35;;;3.58;;
72517;SDS011;60540;51.178;6.738;2022-09-14T10:37:45;5.70;;;3.63;;
72517;SDS011;60540;51.178;6.738;2022-09-14T10:40:18;5.35;;;3.63;;
72517;SDS011;60540;51.178;6.738;2022-09-14T10:43:30;5.85;;;3.63;;
72517;SDS011;60540;51.178;6.738;2022-09-14T10:45:50;6.15;;;3.88;;
72517;SDS011;60540;51.178;6.738;2022-09-14T10:53:42;5.10;;;3.30;;
72517;SDS011;60540;51.178;6.738;2022-09-14T11:04:29;5.15;;;3.38;;
72517;SDS011;60540;51.178;6.738;2022-09-14T11:09:54;4.95;;;3.30;;
72517;SDS011;60540;51.178;6.738;2022-09-14T11:24:32;5.25;;;2.88;;
72517;SDS011;60540;51.178;6.738;2022-09-14T11:26:59;3.70;;;2.40;;
72517;SDS011;60540;51.178;6.738;2022-09-14T11:29:48;4.55;;;2.65;;
72517;SDS011;60540;51.178;6.738;2022-09-14T11:32:21;4.38;;;2.28;;
72517;SDS011;60540;51.178;6.738;2022-09-14T11:34:51;4.30;;;2.53;;
72517;SDS011;60540;51.178;6.738;2022-09-14T11:40:17;4.35;;;2.63;;
72517;SDS011;60540;51.178;6.738;2022-09-14T11:45:28;5.18;;;3.10;;
72517;SDS011;60540;51.178;6.738;2022-09-14T11:47:58;5.57;;;2.78;;
72517;SDS011;60540;51.178;6.738;2022-09-14T11:50:28;4.88;;;2.60;;
72517;SDS011;60540;51.178;6.738;2022-09-14T11:53:02;4.25;;;2.63;;
72517;SDS011;60540;51.178;6.738;2022-09-14T11:55:34;4.10;;;2.50;;
72517;SDS011;60540;51.178;6.738;2022-09-14T11:58:01;5.18;;;3.10;;
72517;SDS011;60540;51.178;6.738;2022-09-14T12:02:57;4.22;;;2.42;;
72517;SDS011;60540;51.178;6.738;2022-09-14T12:05:37;5.38;;;2.40;;
72517;SDS011;60540;51.178;6.738;2022-09-14T12:08:23;5.72;;;3.00;;
72517;SDS011;60540;51.178;6.738;2022-09-14T12:10:58;7.13;;;3.10;;
72517;SDS011;60540;51.178;6.738;2022-09-14T12:13:30;5.53;;;2.67;;
72517;SDS011;60540;51.178;6.738;2022-09-14T12:15:59;3.63;;;2.65;;
72517;SDS011;60540;51.178;6.738;2022-09-14T12:18:26;3.90;;;2.30;;
72517;SDS011;60540;51.178;6.738;2022-09-14T12:20:59;3.42;;;2.22;;
72517;SDS011;60540;51.178;6.738;2022-09-14T12:35:59;2.83;;;1.70;;
72517;SDS011;60540;51.178;6.738;2022-09-14T12:41:02;4.30;;;2.03;;
72517;SDS011;60540;51.178;6.738;2022-09-14T12:53:56;4.07;;;2.20;;
72517;SDS011;60540;51.178;6.738;2022-09-14T13:04:53;4.30;;;2.22;;
72517;SDS011;60540;51.178;6.738;2022-09-14T13:07:21;3.92;;;1.80;;
72517;SDS011;60540;51.178;6.738;2022-09-14T13:09:51;4.03;;;2.10;;
72517;SDS011;60540;51.178;6.738;2022-09-14T13:12:35;4.57;;;2.17;;
72517;SDS011;60540;51.178;6.738;2022-09-14T13:15:04;4.32;;;2.45;;
72517;SDS011;60540;51.178;6.738;2022-09-14T13:17:31;3.95;;;2.30;;
72517;SDS011;60540;51.178;6.738;2022-09-14T13:19:58;3.72;;;1.80;;
72517;SDS011;60540;51.178;6.738;2022-09-14T13:22:26;5.60;;;2.35;;
72517;SDS011;60540;51.178;6.738;2022-09-14T13:24:59;5.05;;;2.08;;
72517;SDS011;60540;51.178;6.738;2022-09-14T13:27:28;3.47;;;1.75;;
72517;SDS011;60540;51.178;6.738;2022-09-14T13:30:04;3.97;;;2.55;;
72517;SDS011;60540;51.178;6.738;2022-09-14T13:32:44;6.32;;;2.30;;
72517;SDS011;60540;51.178;6.738;2022-09-14T13:35:18;4.95;;;2.20;;
72517;SDS011;60540;51.178;6.738;2022-09-14T13:37:46;6.55;;;2.38;;
72517;SDS011;60540;51.178;6.738;2022-09-14T13:42:38;3.83;;;2.42;;
72517;SDS011;60540;51.178;6.738;2022-09-14T13:47:31;4.82;;;2.72;;
72517;SDS011;60540;51.178;6.738;2022-09-14T13:49:56;3.97;;;2.30;;
72517;SDS011;60540;51.178;6.738;2022-09-14T13:54:48;4.07;;;2.00;;
72517;SDS011;60540;51.178;6.738;2022-09-14T13:57:16;3.83;;;2.10;;
72517;SDS011;60540;51.178;6.738;2022-09-14T14:02:33;3.10;;;1.58;;
72517;SDS011;60540;51.178;6.738;2022-09-14T14:04:59;5.47;;;2.10;;
72517;SDS011;60540;51.178;6.738;2022-09-14T14:07:29;3.90;;;2.00;;
72517;SDS011;60540;51.178;6.738;2022-09-14T14:09:57;3.92;;;1.73;;
72517;SDS011;60540;51.178;6.738;2022-09-14T14:12:25;3.67;;;1.83;;
72517;SDS011;60540;51.178;6.738;2022-09-14T14:14:56;4.03;;;1.67;;
72517;SDS011;60540;51.178;6.738;2022-09-14T14:17:29;3.42;;;1.67;;
72517;SDS011;60540;51.178;6.738;2022-09-14T14:25:33;5.50;;;2.47;;
72517;SDS011;60540;51.178;6.738;2022-09-14T14:28:04;4.50;;;1.83;;
72517;SDS011;60540;51.178;6.738;2022-09-14T14:30:38;4.53;;;1.90;;
72517;SDS011;60540;51.178;6.738;2022-09-14T14:33:08;5.10;;;1.90;;
72517;SDS011;60540;51.178;6.738;2022-09-14T14:35:38;3.58;;;1.90;;
72517;SDS011;60540;51.178;6.738;2022-09-14T14:38:04;4.78;;;2.10;;
72517;SDS011;60540;51.178;6.738;2022-09-14T14:40:29;3.72;;;1.77;;
72517;SDS011;60540;51.178;6.738;2022-09-14T14:42:56;5.15;;;1.85;;
72517;SDS011;60540;51.178;6.738;2022-09-14T14:45:23;3.67;;;2.05;;
72517;SDS011;60540;51.178;6.738;2022-09-14T14:47:50;2.75;;;1.40;;
72517;SDS011;60540;51.178;6.738;2022-09-14T14:50:18;4.45;;;1.70;;
72517;SDS011;60540;51.178;6.738;2022-09-14T14:52:46;2.90;;;1.70;;
72517;SDS011;60540;51.178;6.738;2022-09-14T14:55:12;4.28;;;1.73;;
72517;SDS011;60540;51.178;6.738;2022-09-14T14:57:39;5.32;;;2.33;;
72517;SDS011;60540;51.178;6.738;2022-09-14T15:00:05;2.75;;;1.50;;
72517;SDS011;60540;51.178;6.738;2022-09-14T15:02:37;4.35;;;1.70;;
72517;SDS011;60540;51.178;6.738;2022-09-14T15:05:03;4.05;;;2.00;;
72517;SDS011;60540;51.178;6.738;2022-09-14T15:07:28;3.30;;;1.70;;
72517;SDS011;60540;51.178;6.738;2022-09-14T15:09:55;4.70;;;1.77;;
72517;SDS011;60540;51.178;6.738;2022-09-14T15:12:22;4.18;;;1.67;;
72517;SDS011;60540;51.178;6.738;2022-09-14T15:14:47;4.30;;;1.80;;
72517;SDS011;60540;51.178;6.738;2022-09-14T15:17:13;4.05;;;1.80;;
72517;SDS011;60540;51.178;6.738;2022-09-14T15:19:39;4.47;;;2.05;;
72517;SDS011;60540;51.178;6.738;2022-09-14T15:22:04;4.25;;;1.80;;
72517;SDS011;60540;51.178;6.738;2022-09-14T15:24:30;3.40;;;2.05;;
72517;SDS011;60540;51.178;6.738;2022-09-14T15:26:56;5.72;;;2.30;;
72517;SDS011;60540;51.178;6.738;2022-09-14T15:29:22;3.70;;;1.90;;
72517;SDS011;60540;51.178;6.738;2022-09-14T15:31:47;4.70;;;2.15;;
72517;SDS011;60540;51.178;6.738;2022-09-14T15:34:13;6.47;;;2.40;;
72517;SDS011;60540;51.178;6.738;2022-09-14T15:39:12;4.28;;;2.00;;
72517;SDS011;60540;51.178;6.738;2022-09-14T15:41:39;4.38;;;2.10;;
72517;SDS011;60540;51.178;6.738;2022-09-14T15:44:05;4.20;;;2.35;;
72517;SDS011;60540;51.178;6.738;2022-09-14T15:48:57;4.97;;;2.10;;
72517;SDS011;60540;51.178;6.738;2022-09-14T15:51:23;4.43;;;2.40;;
72517;SDS011;60540;51.178;6.738;2022-09-14T15:53:48;5.95;;;2.15;;
72517;SDS011;60540;51.178;6.738;2022-09-14T15:56:16;4.38;;;2.72;;
72517;SDS011;60540;51.178;6.738;2022-09-14T15:58:42;3.72;;;2.20;;
72517;SDS011;60540;51.178;6.738;2022-09-14T16:01:08;4.88;;;2.03;;
72517;SDS011;60540;51.178;6.738;2022-09-14T16:03:34;5.25;;;2.40;;
72517;SDS011;60540;51.178;6.738;2022-09-14T16:06:00;5.30;;;2.28;;
72517;SDS011;60540;51.178;6.738;2022-09-14T16:08:26;4.50;;;1.95;;
72517;SDS011;60540;51.178;6.738;2022-09-14T16:10:58;3.88;;;1.73;;
72517;SDS011;60540;51.178;6.738;2022-09-14T16:13:25;4.50;;;1.95;;
72517;SDS011;60540;51.178;6.738;2022-09-14T16:16:00;3.38;;;1.70;;
72517;SDS011;60540;51.178;6.738;2022-09-14T16:18:32;5.18;;;1.80;;
72517;SDS011;60540;51.178;6.738;2022-09-14T16:21:17;4.40;;;1.95;;
72517;SDS011;60540;51.178;6.738;2022-09-14T16:23:46;3.38;;;1.60;;
72517;SDS011;60540;51.178;6.738;2022-09-14T16:26:19;3.05;;;1.55;;
72517;SDS011;60540;51.178;6.738;2022-09-14T16:28:47;3.78;;;1.40;;
72517;SDS011;60540;51.178;6.738;2022-09-14T16:31:15;3.47;;;1.30;;
72517;SDS011;60540;51.178;6.738;2022-09-14T16:33:43;2.42;;;1.40;;
72517;SDS011;60540;51.178;6.738;2022-09-14T16:36:14;4.00;;;1.50;;
72517;SDS011;60540;51.178;6.738;2022-09-14T16:38:41;3.03;;;1.25;;
72517;SDS011;60540;51.178;6.738;2022-09-14T16:41:07;2.80;;;1.52;;
72517;SDS011;60540;51.178;6.738;2022-09-14T16:46:03;3.00;;;1.40;;
72517;SDS011;60540;51.178;6.738;2022-09-14T16:48:33;4.20;;;1.50;;
72517;SDS011;60540;51.178;6.738;2022-09-14T16:51:00;3.97;;;1.50;;
72517;SDS011;60540;51.178;6.738;2022-09-14T16:53:27;2.75;;;1.60;;
72517;SDS011;60540;51.178;6.738;2022-09-14T16:56:07;4.10;;;1.48;;
72517;SDS011;60540;51.178;6.738;2022-09-14T16:58:35;4.60;;;1.50;;
72517;SDS011;60540;51.178;6.738;2022-09-14T17:03:31;2.85;;;1.30;;
72517;SDS011;60540;51.178;6.738;2022-09-14T17:06:02;3.60;;;1.90;;
72517;SDS011;60540;51.178;6.738;2022-09-14T17:08:29;5.30;;;1.45;;
72517;SDS011;60540;51.178;6.738;2022-09-14T17:10:55;4.22;;;1.30;;
72517;SDS011;60540;51.178;6.738;2022-09-14T17:13:21;4.50;;;1.50;;
72517;SDS011;60540;51.178;6.738;2022-09-14T17:15:47;2.25;;;1.35;;
72517;SDS011;60540;51.178;6.738;2022-09-14T17:18:13;4.05;;;1.58;;
72517;SDS011;60540;51.178;6.738;2022-09-14T17:20:39;9.07;;;2.75;;
72517;SDS011;60540;51.178;6.738;2022-09-14T17:23:04;3.60;;;1.40;;
72517;SDS011;60540;51.178;6.738;2022-09-14T17:25:31;4.20;;;1.73;;